Terminal Aerodrome Forecast
Issued by NWS

Home | Current Version | Previous Version | Text Only | Print | Product List | Glossary On
Versions: 1 2 3 4 5 6 7 8 9 10 11 12 13
000
FTUS46 KMFR 291340 AAA
TAFLMT
TAF AMD
KLMT 291340Z 2914/3012 VRB03KT P6SM SKC
      TEMPO 2914/2915 1SM BR VV002
     FM291700 19008KT P6SM SKC
     FM292200 21014G20KT P6SM FEW250=

USA.gov is the U.S. government's official web portal to all federal, state and local government web resources and services.